createdAt,value
2023-05-24T00:00:01.378Z,97912.94
2023-05-24T00:10:05.597Z,97904.91
2023-05-24T00:20:11.046Z,97908.59
2023-05-24T00:30:13.503Z,97907.13
2023-05-24T00:40:18.683Z,97904.78
2023-05-24T00:50:22.666Z,97901.09
2023-05-24T01:00:25.543Z,97898.22
2023-05-24T01:10:36.833Z,97907.06
2023-05-24T01:20:41.509Z,97909.59
2023-05-24T01:30:45.573Z,97897.41
2023-05-24T01:40:51.769Z,97895.94
2023-05-24T01:50:58.680Z,97891.41
2023-05-24T02:01:02.223Z,97900.16
2023-05-24T02:11:04.705Z,97908.59
2023-05-24T02:21:07.573Z,97898.84
2023-05-24T02:31:10.252Z,97896.72
2023-05-24T02:41:18.256Z,97892.97
2023-05-24T02:51:21.215Z,97883.75
2023-05-24T03:01:24.642Z,97881.09
2023-05-24T03:11:28.278Z,97870.56
2023-05-24T03:21:34.264Z,97861.94
2023-05-24T03:31:37.466Z,97866.31
2023-05-24T03:41:40.302Z,97859.53
2023-05-24T03:51:43.688Z,97862.25
2023-05-24T04:01:47.180Z,97868.22
2023-05-24T04:11:50.826Z,97873.94
2023-05-24T04:21:53.644Z,97885.31
2023-05-24T04:31:57.344Z,97887.50
2023-05-24T04:42:01.331Z,97889.41
2023-05-24T04:52:04.112Z,97897.28
2023-05-24T05:02:06.835Z,97897.06
2023-05-24T05:12:09.951Z,97900.31
2023-05-24T05:22:13.562Z,97912.25
2023-05-24T05:32:16.813Z,97914.13
2023-05-24T05:42:21.348Z,97914.13
2023-05-24T05:52:25.023Z,97915.47
2023-05-24T06:02:28.070Z,97923.75
2023-05-24T06:12:33.322Z,97922.56
2023-05-24T06:22:39.423Z,97932.84
2023-05-24T06:32:43.898Z,97928.47
2023-05-24T06:42:49.924Z,97938.19
2023-05-24T06:52:53.457Z,97945.28
2023-05-24T07:02:59.797Z,97961.06
2023-05-24T07:13:02.937Z,97976.88
2023-05-24T07:23:07.311Z,97966.56
2023-05-24T07:33:10.168Z,97985.25
2023-05-24T07:43:15.249Z,97984.16
2023-05-24T07:53:20.328Z,97987.94
2023-05-24T08:03:26.524Z,97989.28
2023-05-24T08:13:33.005Z,97990.53
2023-05-24T08:23:38.230Z,97979.25
2023-05-24T08:33:41.690Z,97992.66
2023-05-24T08:43:45.100Z,97991.56
2023-05-24T08:53:50.697Z,97999.34
2023-05-24T09:03:54.967Z,98010.31
2023-05-24T09:14:00.266Z,98006.28
2023-05-24T09:24:10.375Z,98012.56
2023-05-24T09:34:17.045Z,98013.91
2023-05-24T09:44:20.021Z,98024.47
2023-05-24T09:54:22.834Z,98017.94
2023-05-24T10:04:33.677Z,98026.56
2023-05-24T10:14:40.335Z,98031.00
2023-05-24T10:24:46.643Z,98045.94
2023-05-24T10:34:54.024Z,98052.53
2023-05-24T10:44:58.597Z,98045.28
2023-05-24T10:55:05.520Z,98045.00
2023-05-24T11:05:08.765Z,98049.00
2023-05-24T11:15:13.183Z,98052.28
2023-05-24T11:25:17.881Z,98041.91
2023-05-24T11:35:23.900Z,98039.91
2023-05-24T11:45:27.562Z,98037.41
2023-05-24T11:55:33.600Z,98020.66
2023-05-24T12:05:40.456Z,98030.00
2023-05-24T12:15:45.262Z,98021.66
2023-05-24T12:25:48.424Z,98017.00
2023-05-24T12:35:51.960Z,98021.25
2023-05-24T12:45:54.799Z,98010.31
2023-05-24T12:55:57.842Z,98002.88
2023-05-24T13:06:00.596Z,97995.03
2023-05-24T13:16:07.018Z,97988.56
2023-05-24T13:26:10.461Z,97980.19
2023-05-24T13:36:14.158Z,97966.63
2023-05-24T13:46:17.781Z,97956.25
2023-05-24T13:56:20.981Z,97943.69
2023-05-24T14:06:24.564Z,97943.69
2023-05-24T14:16:28.073Z,97942.56
2023-05-24T14:26:32.372Z,97946.13
2023-05-24T14:36:36.738Z,97947.22
2023-05-24T14:46:41.739Z,97933.84
2023-05-24T14:56:45.829Z,97937.06
2023-05-24T15:06:50.083Z,97936.13
2023-05-24T15:16:53.046Z,97940.50
2023-05-24T15:26:56.206Z,97923.22
2023-05-24T15:37:04.493Z,97910.91
2023-05-24T15:47:09.408Z,97894.81
2023-05-24T15:57:13.167Z,97880.06
2023-05-24T16:07:16.315Z,97879.69
2023-05-24T16:17:23.389Z,97877.22
2023-05-24T16:27:26.716Z,97871.56
2023-05-24T16:37:32.072Z,97873.66
2023-05-24T16:47:36.266Z,97866.19
2023-05-24T16:57:41.244Z,97871.53
2023-05-24T17:07:46.496Z,97875.13
2023-05-24T17:17:49.790Z,97866.66
2023-05-24T17:27:53.481Z,97849.13
2023-05-24T17:37:58.415Z,97864.38
2023-05-24T17:48:03.265Z,97864.50
2023-05-24T17:58:10.441Z,97866.63
2023-05-24T18:08:15.689Z,97862.44
2023-05-24T18:18:20.790Z,97879.63
2023-05-24T18:28:25.196Z,97895.66
2023-05-24T18:38:28.215Z,97891.16
2023-05-24T18:48:32.800Z,97898.03
2023-05-24T18:58:35.863Z,97901.38
2023-05-24T19:08:40.372Z,97903.19
2023-05-24T19:18:44.475Z,97908.72
2023-05-24T19:28:52.214Z,97915.25
2023-05-24T19:38:57.106Z,97928.00
2023-05-24T19:49:02.059Z,97926.09
2023-05-24T19:59:09.063Z,97936.16
2023-05-24T20:09:12.469Z,97939.97
2023-05-24T20:19:15.131Z,97937.28
2023-05-24T20:29:17.531Z,97925.91
2023-05-24T20:39:20.605Z,97923.22
2023-05-24T20:49:23.593Z,97930.56
2023-05-24T20:59:26.963Z,97929.53
2023-05-24T21:09:30.504Z,97929.53
2023-05-24T21:19:33.105Z,97935.25
2023-05-24T21:29:38.710Z,97931.47
2023-05-24T21:39:44.570Z,97936.37
2023-05-24T21:49:47.388Z,97933.69
2023-05-24T21:59:50.079Z,97932.88
2023-05-24T22:09:53.809Z,97930.97
2023-05-24T22:19:57.200Z,97934.47
2023-05-24T22:30:00.205Z,97930.34
2023-05-24T22:40:03.753Z,97935.13
2023-05-24T22:50:07.991Z,97936.16
2023-05-24T23:00:12.048Z,97933.25
2023-05-24T23:10:15.674Z,97925.72
2023-05-24T23:20:19.165Z,97921.06
2023-05-24T23:30:21.641Z,97914.88
2023-05-24T23:40:24.207Z,97936.25
2023-05-24T23:50:27.902Z,97925.97
